EZY37J GCLP-BIKF
Flight info
| Callsign | EZY37J |
|---|---|
| Flight time | N/A |
| Altitude | 24000 |
| Route | BIMBO UN745 SNT/N0442F360 T16 IDREL DCT NAVIX/M079F380 DCT 40N019W/M079F370 45N019W 50N019W 55N019W 60N019W DCT 6119N/M079F380 DCT RUMUX DCT BASLU BASLU3K |
| Aircraft | A20N/M-SDE2E3FGHIRWXY/LB1 |
Departure
| Time | 2026-04-27 15:45 |
|---|---|
| Airport | Gran Canaria Airport (GCLP) |
Arrival
| Time | N/A |
|---|---|
| Airport | Keflavik International Airport (BIKF) |
| Time | Latitude | Longitude | Altitude | Speed | Heading |
|---|---|---|---|---|---|
| 2026-04-27 15:07 | 27.93375 | -15.38845 | 59 ft | 0 kts | 290° |
| 2026-04-27 15:12 | 27.93376 | -15.38847 | 59 ft | 2 kts | 290° |
| 2026-04-27 15:12 | 27.93379 | -15.38858 | 53 ft | 0 kts | 290° |
| 2026-04-27 15:13 | 27.93381 | -15.38862 | 54 ft | 3 kts | 290° |
| 2026-04-27 15:13 | 27.93362 | -15.38932 | 56 ft | 19 kts | 215° |
| 2026-04-27 15:13 | 27.93266 | -15.38968 | 58 ft | 15 kts | 203° |
| 2026-04-27 15:14 | 27.93193 | -15.39005 | 60 ft | 0 kts | 203° |
| 2026-04-27 15:14 | 27.93190 | -15.39007 | 56 ft | 2 kts | 203° |
| 2026-04-27 15:15 | 27.93124 | -15.39032 | 62 ft | 19 kts | 194° |
| 2026-04-27 15:15 | 27.93005 | -15.39088 | 66 ft | 14 kts | 202° |
| 2026-04-27 15:15 | 27.92855 | -15.39155 | 62 ft | 32 kts | 198° |
| 2026-04-27 15:15 | 27.92711 | -15.39249 | 62 ft | 4 kts | 199° |
| 2026-04-27 15:16 | 27.92646 | -15.39280 | 66 ft | 15 kts | 197° |
| 2026-04-27 15:16 | 27.92508 | -15.39326 | 68 ft | 24 kts | 178° |
| 2026-04-27 15:16 | 27.92432 | -15.39251 | 74 ft | 0 kts | 114° |
| 2026-04-27 15:16 | 27.92434 | -15.39201 | 75 ft | 11 kts | 50° |
| 2026-04-27 15:17 | 27.92494 | -15.39168 | 70 ft | 0 kts | 24° |
| 2026-04-27 15:26 | 27.92967 | -15.39180 | 67 ft | 764 kts | 10° |
| 2026-04-27 15:27 | 27.93765 | -15.38831 | 53 ft | 0 kts | 318° |
| 2026-04-27 15:27 | 27.93776 | -15.38851 | 53 ft | 0 kts | 293° |
| 2026-04-27 15:38 | 27.93774 | -15.38846 | 53 ft | 2 kts | 293° |
| 2026-04-27 15:38 | 27.93771 | -15.38837 | 53 ft | 0 kts | 293° |
| 2026-04-27 15:39 | 27.93768 | -15.38830 | 48 ft | 1 kts | 293° |
| 2026-04-27 15:39 | 27.93765 | -15.38822 | 47 ft | 1 kts | 293° |
| 2026-04-27 15:39 | 27.93762 | -15.38813 | 48 ft | 1 kts | 293° |
| 2026-04-27 15:40 | 27.93755 | -15.38794 | 49 ft | 4 kts | 288° |
| 2026-04-27 15:40 | 27.93757 | -15.38764 | 49 ft | 2 kts | 223° |
| 2026-04-27 15:40 | 27.93770 | -15.38756 | 46 ft | 2 kts | 197° |
| 2026-04-27 15:40 | 27.93785 | -15.38750 | 51 ft | 0 kts | 200° |
| 2026-04-27 15:41 | 27.93784 | -15.38750 | 51 ft | 1 kts | 200° |
| 2026-04-27 15:42 | 27.93768 | -15.38757 | 46 ft | 4 kts | 201° |
| 2026-04-27 15:42 | 27.93746 | -15.38767 | 49 ft | 5 kts | 202° |
| 2026-04-27 15:42 | 27.93695 | -15.38722 | 53 ft | 20 kts | 114° |
| 2026-04-27 15:42 | 27.93594 | -15.38667 | 50 ft | 22 kts | 199° |
| 2026-04-27 15:43 | 27.93476 | -15.38721 | 52 ft | 34 kts | 202° |
| 2026-04-27 15:43 | 27.93210 | -15.38842 | 59 ft | 48 kts | 205° |
| 2026-04-27 15:43 | 27.92866 | -15.39003 | 68 ft | 59 kts | 202° |
| 2026-04-27 15:43 | 27.92399 | -15.39209 | 73 ft | 101 kts | 199° |
| 2026-04-27 15:44 | 27.91857 | -15.39331 | 85 ft | 0 kts | 69° |
| 2026-04-27 15:44 | 27.91909 | -15.38988 | 76 ft | 8 kts | 27° |
| 2026-04-27 15:44 | 27.92397 | -15.38768 | 68 ft | 0 kts | 31° |
| 2026-04-27 15:44 | 27.93356 | -15.38352 | 49 ft | 41 kts | 18° |
| 2026-04-27 15:45 | 27.93862 | -15.38144 | 46 ft | 110 kts | 22° |
| 2026-04-27 15:45 | 27.94701 | -15.37774 | 396 ft | 129 kts | 19° |
| 2026-04-27 15:45 | 27.95537 | -15.37401 | 1039 ft | 139 kts | 18° |
| 2026-04-27 15:45 | 27.96484 | -15.36965 | 1524 ft | 150 kts | 19° |
| 2026-04-27 15:46 | 27.97532 | -15.36526 | 1826 ft | 175 kts | 16° |
| 2026-04-27 15:46 | 28.00217 | -15.35511 | 2517 ft | 215 kts | 17° |
| 2026-04-27 15:46 | 28.03217 | -15.34298 | 3554 ft | 229 kts | 18° |
| 2026-04-27 15:46 | 28.05999 | -15.33130 | 4027 ft | 260 kts | 19° |
| 2026-04-27 15:47 | 28.07761 | -15.32363 | 4032 ft | 281 kts | 19° |
| 2026-04-27 15:47 | 28.09642 | -15.31540 | 4028 ft | 296 kts | 20° |
| 2026-04-27 15:47 | 28.11562 | -15.30700 | 4026 ft | 305 kts | 19° |
| 2026-04-27 15:47 | 28.13564 | -15.29828 | 4027 ft | 311 kts | 19° |
| 2026-04-27 15:48 | 28.15629 | -15.29134 | 4313 ft | 304 kts | 12° |
| 2026-04-27 15:48 | 28.17623 | -15.28574 | 5081 ft | 285 kts | 13° |
| 2026-04-27 15:48 | 28.19515 | -15.28025 | 5666 ft | 278 kts | 13° |
| 2026-04-27 15:49 | 28.23346 | -15.26835 | 6176 ft | 286 kts | 13° |
| 2026-04-27 15:49 | 28.25227 | -15.26309 | 6941 ft | 271 kts | 12° |
| 2026-04-27 15:49 | 28.27046 | -15.25821 | 7442 ft | 269 kts | 12° |
| 2026-04-27 15:49 | 28.28873 | -15.25324 | 7791 ft | 271 kts | 13° |
| 2026-04-27 15:50 | 28.30708 | -15.24813 | 8148 ft | 272 kts | 13° |
| 2026-04-27 15:50 | 28.32529 | -15.24298 | 8521 ft | 274 kts | 13° |
| 2026-04-27 15:50 | 28.34338 | -15.23910 | 8836 ft | 276 kts | 359° |
| 2026-04-27 15:50 | 28.36224 | -15.24382 | 9146 ft | 278 kts | 333° |
| 2026-04-27 15:51 | 28.37717 | -15.25775 | 9457 ft | 283 kts | 307° |
| 2026-04-27 15:51 | 28.38582 | -15.27785 | 9771 ft | 288 kts | 291° |
| 2026-04-27 15:51 | 28.39284 | -15.29914 | 10104 ft | 288 kts | 296° |
| 2026-04-27 15:51 | 28.40242 | -15.31939 | 10229 ft | 295 kts | 305° |
| 2026-04-27 15:52 | 28.41487 | -15.33825 | 10310 ft | 303 kts | 311° |
| 2026-04-27 15:52 | 28.42921 | -15.35621 | 10386 ft | 310 kts | 315° |
| 2026-04-27 15:52 | 28.44452 | -15.37383 | 10445 ft | 315 kts | 316° |
| 2026-04-27 15:52 | 28.46020 | -15.39138 | 10551 ft | 319 kts | 316° |
| 2026-04-27 15:53 | 28.47604 | -15.40907 | 10710 ft | 319 kts | 316° |
| 2026-04-27 15:53 | 28.49169 | -15.42663 | 10994 ft | 309 kts | 316° |
| 2026-04-27 15:53 | 28.50708 | -15.44398 | 11037 ft | 315 kts | 316° |
| 2026-04-27 15:53 | 28.52277 | -15.46172 | 11047 ft | 320 kts | 316° |
| 2026-04-27 15:54 | 28.53858 | -15.47963 | 11040 ft | 321 kts | 316° |
| 2026-04-27 15:54 | 28.55426 | -15.49728 | 11042 ft | 320 kts | 319° |
| 2026-04-27 15:54 | 28.57227 | -15.51195 | 11038 ft | 320 kts | 332° |
| 2026-04-27 15:54 | 28.59300 | -15.52112 | 11043 ft | 320 kts | 346° |
| 2026-04-27 15:55 | 28.61494 | -15.52530 | 11048 ft | 321 kts | 351° |
| 2026-04-27 15:55 | 28.63701 | -15.52903 | 11045 ft | 320 kts | 351° |
| 2026-04-27 15:55 | 28.65912 | -15.53286 | 11043 ft | 322 kts | 351° |
| 2026-04-27 15:55 | 28.68121 | -15.53671 | 11048 ft | 321 kts | 351° |
| 2026-04-27 15:56 | 28.70257 | -15.54045 | 11054 ft | 320 kts | 351° |
| 2026-04-27 15:56 | 28.72455 | -15.54429 | 11044 ft | 319 kts | 351° |
| 2026-04-27 15:56 | 28.74660 | -15.54814 | 11049 ft | 321 kts | 351° |
| 2026-04-27 15:56 | 28.76861 | -15.55198 | 11049 ft | 319 kts | 351° |
| 2026-04-27 15:57 | 27.93375 | -15.38845 | 88 ft | 0 kts | 290° |
| 2026-04-27 15:59 | 27.93435 | -15.39027 | 59 ft | 0 kts | 290° |
| 2026-04-27 16:00 | 29.49734 | -15.58189 | 83125 ft | 0 kts | 348° |
| 2026-04-27 16:00 | 29.55000 | -15.59435 | 77975 ft | 609 kts | 345° |
| 2026-04-27 16:00 | 29.59102 | -15.60408 | 68856 ft | 595 kts | 342° |
| 2026-04-27 16:01 | 29.63017 | -15.61586 | 59229 ft | 562 kts | 336° |
| 2026-04-27 16:01 | 29.66607 | -15.63053 | 51575 ft | 519 kts | 339° |
| 2026-04-27 16:01 | 29.69664 | -15.64486 | 46629 ft | 480 kts | 330° |
| 2026-04-27 16:01 | 29.72640 | -15.66140 | 44632 ft | 468 kts | 330° |
| 2026-04-27 16:02 | 29.75532 | -15.67737 | 43852 ft | 456 kts | 330° |
| 2026-04-27 16:02 | 29.78365 | -15.69295 | 43160 ft | 448 kts | 330° |
| 2026-04-27 16:02 | 29.81164 | -15.70836 | 42503 ft | 442 kts | 330° |
| 2026-04-27 16:02 | 29.83917 | -15.72353 | 41882 ft | 436 kts | 330° |
| 2026-04-27 16:03 | 29.86605 | -15.73842 | 41285 ft | 431 kts | 330° |
| 2026-04-27 16:03 | 29.89326 | -15.75357 | 40712 ft | 426 kts | 330° |
| 2026-04-27 16:03 | 29.91951 | -15.76889 | 40211 ft | 421 kts | 330° |
| 2026-04-27 16:03 | 29.94584 | -15.78317 | 39779 ft | 416 kts | 333° |
| 2026-04-27 16:04 | 29.97245 | -15.79566 | 39398 ft | 410 kts | 336° |
| 2026-04-27 16:04 | 29.99926 | -15.80636 | 39006 ft | 405 kts | 339° |
| 2026-04-27 16:04 | 30.02616 | -15.81523 | 38585 ft | 401 kts | 341° |
| 2026-04-27 16:04 | 30.05291 | -15.82226 | 38096 ft | 397 kts | 345° |
| 2026-04-27 16:05 | 30.08003 | -15.82733 | 37830 ft | 392 kts | 349° |
| 2026-04-27 16:05 | 30.10759 | -15.83069 | 37695 ft | 396 kts | 350° |
| 2026-04-27 16:05 | 30.13466 | -15.83349 | 37741 ft | 396 kts | 351° |
| 2026-04-27 16:05 | 30.16230 | -15.83613 | 36783 ft | 407 kts | 350° |
| 2026-04-27 16:06 | 30.19126 | -15.83990 | 35799 ft | 417 kts | 349° |
| 2026-04-27 16:06 | 30.21950 | -15.84410 | 35786 ft | 400 kts | 348° |
| 2026-04-27 16:06 | 30.24637 | -15.84843 | 35886 ft | 382 kts | 348° |
| 2026-04-27 16:07 | 30.29870 | -15.85810 | 35982 ft | 382 kts | 346° |
| 2026-04-27 16:07 | 30.35058 | -15.86945 | 36047 ft | 384 kts | 345° |
| 2026-04-27 16:08 | 30.40291 | -15.88269 | 36123 ft | 386 kts | 343° |
| 2026-04-27 16:08 | 30.45511 | -15.89771 | 36200 ft | 388 kts | 342° |
| 2026-04-27 16:08 | 30.47462 | -15.90297 | 25443 ft | 384 kts | 351° |
| 2026-04-27 16:09 | 30.50058 | -15.90368 | 25730 ft | 369 kts | 1° |
| 2026-04-27 16:09 | 30.54834 | -15.90816 | 26419 ft | 328 kts | 351° |
| 2026-04-27 16:09 | 30.57106 | -15.91138 | 26528 ft | 329 kts | 351° |
| 2026-04-27 16:10 | 30.61669 | -15.91781 | 27118 ft | 331 kts | 351° |
| 2026-04-27 16:10 | 30.66277 | -15.92434 | 27638 ft | 335 kts | 351° |
| 2026-04-27 16:11 | 30.68508 | -15.92751 | 27873 ft | 337 kts | 351° |
| 2026-04-27 16:11 | 30.73213 | -15.93419 | 28352 ft | 342 kts | 351° |
| 2026-04-27 16:12 | 30.77928 | -15.94089 | 28812 ft | 345 kts | 351° |
| 2026-04-27 16:12 | 30.80305 | -15.94427 | 29043 ft | 347 kts | 351° |
| 2026-04-27 16:12 | 30.85149 | -15.95117 | 29478 ft | 351 kts | 351° |
| 2026-04-27 16:13 | 30.87586 | -15.95464 | 29688 ft | 353 kts | 351° |
| 2026-04-27 16:13 | 30.92487 | -15.96164 | 30126 ft | 356 kts | 351° |
| 2026-04-27 16:13 | 30.94953 | -15.96515 | 30333 ft | 357 kts | 351° |
| 2026-04-27 16:14 | 30.99909 | -15.97223 | 30715 ft | 360 kts | 351° |
| 2026-04-27 16:14 | 31.04902 | -15.97937 | 31106 ft | 362 kts | 351° |
| 2026-04-27 16:15 | 31.09930 | -15.98657 | 31462 ft | 365 kts | 351° |
| 2026-04-27 16:15 | 31.14993 | -15.99383 | 31839 ft | 367 kts | 351° |
| 2026-04-27 16:16 | 31.20055 | -16.00109 | 32158 ft | 370 kts | 351° |
| 2026-04-27 16:16 | 31.25192 | -16.00846 | 32495 ft | 373 kts | 351° |
| 2026-04-27 16:17 | 31.30355 | -16.01588 | 32808 ft | 375 kts | 351° |
| 2026-04-27 16:17 | 31.34615 | -16.02200 | 33065 ft | 377 kts | 351° |
| 2026-04-27 16:18 | 31.39850 | -16.02955 | 33356 ft | 379 kts | 351° |
| 2026-04-27 16:18 | 31.45096 | -16.03769 | 33651 ft | 381 kts | 349° |
| 2026-04-27 16:19 | 31.47722 | -16.04273 | 33782 ft | 382 kts | 348° |
| 2026-04-27 16:19 | 31.50352 | -16.04790 | 33913 ft | 383 kts | 348° |
| 2026-04-27 16:20 | 31.58275 | -16.06306 | 34278 ft | 386 kts | 349° |
| 2026-04-27 16:20 | 31.60934 | -16.06805 | 34381 ft | 387 kts | 349° |
| 2026-04-27 16:20 | 31.66270 | -16.07806 | 34615 ft | 389 kts | 349° |
| 2026-04-27 16:21 | 31.68872 | -16.08295 | 34698 ft | 390 kts | 349° |
| 2026-04-27 16:21 | 31.76913 | -16.09808 | 35002 ft | 392 kts | 349° |
| 2026-04-27 16:22 | 31.79612 | -16.10316 | 35089 ft | 393 kts | 349° |
| 2026-04-27 16:22 | 31.85028 | -16.11338 | 35268 ft | 395 kts | 348° |
| 2026-04-27 16:22 | 31.87749 | -16.11851 | 35361 ft | 396 kts | 349° |
| 2026-04-27 16:23 | 31.95941 | -16.13400 | 35612 ft | 398 kts | 349° |
| 2026-04-27 16:24 | 32.01424 | -16.14437 | 35766 ft | 400 kts | 349° |
| 2026-04-27 16:24 | 32.06902 | -16.15475 | 35925 ft | 402 kts | 349° |
| 2026-04-27 16:25 | 32.12437 | -16.16525 | 36064 ft | 403 kts | 349° |
| 2026-04-27 16:25 | 32.17952 | -16.17572 | 36192 ft | 405 kts | 349° |
| 2026-04-27 16:26 | 32.31308 | -16.20114 | 36079 ft | 407 kts | 349° |
| 2026-04-27 16:26 | 32.42535 | -16.22806 | 35945 ft | 403 kts | 342° |
| 2026-04-27 16:27 | 32.53232 | -16.24419 | 36106 ft | 408 kts | 350° |
| 2026-04-27 16:28 | 32.67203 | -16.27000 | 36094 ft | 407 kts | 348° |
| 2026-04-27 16:29 | 32.80998 | -16.29653 | 36103 ft | 408 kts | 349° |
| 2026-04-27 16:30 | 32.92147 | -16.31802 | 36111 ft | 408 kts | 349° |
| 2026-04-27 16:31 | 33.06145 | -16.34508 | 36109 ft | 408 kts | 349° |
| 2026-04-27 16:32 | 33.11824 | -16.34952 | 36109 ft | 411 kts | 1° |
| 2026-04-27 16:32 | 33.14689 | -16.34795 | 36109 ft | 411 kts | 0° |
| 2026-04-27 16:33 | 33.23280 | -16.34402 | 36107 ft | 412 kts | 0° |
| 2026-04-27 16:33 | 33.28995 | -16.34139 | 36109 ft | 411 kts | 0° |
| 2026-04-27 16:34 | 33.34681 | -16.33875 | 36107 ft | 412 kts | 0° |
| 2026-04-27 16:34 | 33.40370 | -16.33609 | 36110 ft | 411 kts | 0° |
| 2026-04-27 16:35 | 33.46091 | -16.33342 | 36107 ft | 412 kts | 0° |
| 2026-04-27 16:36 | 33.54683 | -16.32940 | 36110 ft | 412 kts | 0° |
| 2026-04-27 16:36 | 33.60412 | -16.32670 | 36109 ft | 411 kts | 0° |
| 2026-04-27 16:37 | 33.66137 | -16.32401 | 36109 ft | 412 kts | 0° |
| 2026-04-27 16:37 | 33.71836 | -16.32133 | 36108 ft | 413 kts | 1° |
| 2026-04-27 16:38 | 33.77576 | -16.31862 | 36112 ft | 413 kts | 1° |
| 2026-04-27 16:38 | 33.83280 | -16.31594 | 36108 ft | 413 kts | 1° |
| 2026-04-27 16:39 | 33.89027 | -16.31322 | 36111 ft | 414 kts | 1° |
| 2026-04-27 16:39 | 33.94791 | -16.31048 | 36108 ft | 414 kts | 1° |
| 2026-04-27 16:40 | 34.00554 | -16.30774 | 36112 ft | 414 kts | 1° |
| 2026-04-27 16:40 | 34.06317 | -16.30500 | 36109 ft | 415 kts | 1° |
| 2026-04-27 16:41 | 34.12087 | -16.30225 | 36111 ft | 415 kts | 1° |
| 2026-04-27 16:41 | 34.17860 | -16.29950 | 36112 ft | 415 kts | 1° |
| 2026-04-27 16:42 | 34.23641 | -16.29673 | 36111 ft | 416 kts | 1° |
| 2026-04-27 16:42 | 34.29442 | -16.29396 | 36113 ft | 416 kts | 1° |
| 2026-04-27 16:43 | 34.35150 | -16.29122 | 36113 ft | 417 kts | 1° |
| 2026-04-27 16:43 | 34.40964 | -16.28844 | 36111 ft | 417 kts | 1° |
| 2026-04-27 16:44 | 34.46766 | -16.28565 | 36113 ft | 417 kts | 1° |
| 2026-04-27 16:44 | 34.52570 | -16.28286 | 36110 ft | 418 kts | 2° |
| 2026-04-27 16:45 | 34.58377 | -16.28006 | 36113 ft | 418 kts | 2° |
| 2026-04-27 16:45 | 34.64191 | -16.27725 | 36111 ft | 418 kts | 2° |
| 2026-04-27 16:46 | 34.69909 | -16.27449 | 36112 ft | 419 kts | 2° |
| 2026-04-27 16:46 | 34.75713 | -16.27168 | 36115 ft | 419 kts | 2° |
| 2026-04-27 16:47 | 34.81561 | -16.26886 | 36109 ft | 422 kts | 2° |
| 2026-04-27 16:47 | 34.87448 | -16.26610 | 36110 ft | 424 kts | 2° |
| 2026-04-27 16:48 | 34.93336 | -16.26342 | 36103 ft | 424 kts | 2° |
| 2026-04-27 16:48 | 34.99247 | -16.26080 | 36106 ft | 424 kts | 2° |
| 2026-04-27 16:49 | 35.08075 | -16.25706 | 36132 ft | 425 kts | 2° |
| 2026-04-27 16:49 | 35.13983 | -16.25466 | 36158 ft | 425 kts | 2° |
| 2026-04-27 16:50 | 35.19914 | -16.25233 | 36178 ft | 427 kts | 2° |
| 2026-04-27 16:50 | 35.25843 | -16.25007 | 36190 ft | 426 kts | 2° |
| 2026-04-27 16:51 | 35.31786 | -16.24787 | 36230 ft | 427 kts | 2° |
| 2026-04-27 16:51 | 35.37587 | -16.24581 | 36270 ft | 427 kts | 2° |
| 2026-04-27 16:52 | 35.43535 | -16.24377 | 36344 ft | 427 kts | 2° |
| 2026-04-27 16:52 | 35.49486 | -16.24178 | 36420 ft | 427 kts | 2° |
| 2026-04-27 16:53 | 35.55444 | -16.23985 | 36467 ft | 428 kts | 2° |
| 2026-04-27 16:53 | 35.61254 | -16.23804 | 36508 ft | 428 kts | 2° |
| 2026-04-27 16:54 | 35.67231 | -16.23624 | 36537 ft | 429 kts | 2° |
| 2026-04-27 16:54 | 35.73137 | -16.23452 | 36549 ft | 428 kts | 2° |
| 2026-04-27 16:55 | 35.79111 | -16.23283 | 36558 ft | 430 kts | 2° |
| 2026-04-27 16:55 | 35.85087 | -16.23121 | 36548 ft | 428 kts | 2° |
| 2026-04-27 16:56 | 35.91030 | -16.22967 | 36538 ft | 430 kts | 2° |
| 2026-04-27 16:56 | 35.97014 | -16.22818 | 36533 ft | 429 kts | 2° |
| 2026-04-27 16:57 | 36.02984 | -16.22677 | 36510 ft | 429 kts | 2° |
| 2026-04-27 16:57 | 36.08973 | -16.22546 | 36480 ft | 429 kts | 2° |
| 2026-04-27 16:58 | 36.14941 | -16.22425 | 36450 ft | 429 kts | 2° |
| 2026-04-27 16:58 | 36.20872 | -16.22311 | 36428 ft | 429 kts | 1° |
| 2026-04-27 16:59 | 36.26829 | -16.22203 | 36408 ft | 429 kts | 2° |
| 2026-04-27 16:59 | 36.32791 | -16.22101 | 36403 ft | 429 kts | 2° |
| 2026-04-27 17:00 | 36.41655 | -16.21958 | 36368 ft | 429 kts | 1° |
| 2026-04-27 17:01 | 36.47628 | -16.21870 | 36352 ft | 429 kts | 1° |
| 2026-04-27 17:01 | 36.53602 | -16.21787 | 36342 ft | 429 kts | 1° |
| 2026-04-27 17:02 | 36.59580 | -16.21711 | 36339 ft | 429 kts | 1° |
| 2026-04-27 17:02 | 36.65524 | -16.21642 | 36332 ft | 429 kts | 1° |
| 2026-04-27 17:03 | 36.71399 | -16.21581 | 36305 ft | 431 kts | 1° |
| 2026-04-27 17:03 | 36.76382 | -16.21536 | 36272 ft | 429 kts | 1° |
| 2026-04-27 17:04 | 36.82357 | -16.21488 | 36219 ft | 430 kts | 1° |
| 2026-04-27 17:04 | 36.88344 | -16.21447 | 36177 ft | 429 kts | 1° |
| 2026-04-27 17:05 | 36.94314 | -16.21413 | 36164 ft | 429 kts | 1° |
| 2026-04-27 17:05 | 37.00284 | -16.21385 | 36127 ft | 429 kts | 1° |
| 2026-04-27 17:06 | 37.06257 | -16.21363 | 36078 ft | 429 kts | 1° |
| 2026-04-27 17:06 | 37.12216 | -16.21346 | 36025 ft | 428 kts | 1° |
| 2026-04-27 17:07 | 37.18138 | -16.21335 | 35986 ft | 429 kts | 0° |
| 2026-04-27 17:07 | 37.24095 | -16.21333 | 35933 ft | 428 kts | 0° |
| 2026-04-27 17:08 | 37.30057 | -16.21339 | 35880 ft | 427 kts | 0° |
| 2026-04-27 17:08 | 37.35903 | -16.21352 | 35820 ft | 428 kts | 0° |
| 2026-04-27 17:09 | 37.41862 | -16.21372 | 35763 ft | 428 kts | 0° |
| 2026-04-27 17:09 | 37.47795 | -16.21398 | 35740 ft | 427 kts | 0° |
| 2026-04-27 17:10 | 37.53744 | -16.21314 | 35731 ft | 426 kts | 2° |
| 2026-04-27 17:10 | 37.59573 | -16.21512 | 35472 ft | 414 kts | 346° |
| 2026-04-27 17:10 | 37.62227 | -16.22715 | 35006 ft | 411 kts | 331° |
| 2026-04-27 17:11 | 37.64562 | -16.24754 | 34500 ft | 407 kts | 317° |
| 2026-04-27 17:11 | 37.68484 | -16.29192 | 34078 ft | 392 kts | 318° |
| 2026-04-27 17:11 | 37.70526 | -16.31473 | 34209 ft | 391 kts | 318° |
| 2026-04-27 17:12 | 37.74465 | -16.35828 | 34784 ft | 380 kts | 319° |
| 2026-04-27 17:12 | 37.76460 | -16.38009 | 34940 ft | 379 kts | 319° |
| 2026-04-27 17:13 | 37.80488 | -16.42363 | 35006 ft | 383 kts | 319° |
| 2026-04-27 17:13 | 37.84580 | -16.46720 | 35103 ft | 386 kts | 320° |
| 2026-04-27 17:14 | 37.88709 | -16.51052 | 35315 ft | 385 kts | 320° |
| 2026-04-27 17:14 | 37.92864 | -16.55347 | 35491 ft | 385 kts | 321° |
| 2026-04-27 17:15 | 37.97033 | -16.59593 | 35623 ft | 387 kts | 321° |
| 2026-04-27 17:15 | 38.01261 | -16.63837 | 35769 ft | 388 kts | 321° |
| 2026-04-27 17:16 | 38.05520 | -16.68049 | 35906 ft | 389 kts | 322° |
| 2026-04-27 17:16 | 38.09821 | -16.72240 | 36041 ft | 389 kts | 322° |
| 2026-04-27 17:17 | 38.14037 | -16.76288 | 36183 ft | 390 kts | 322° |
| 2026-04-27 17:17 | 38.18311 | -16.80333 | 36303 ft | 391 kts | 323° |
| 2026-04-27 17:18 | 38.22715 | -16.84441 | 36420 ft | 391 kts | 323° |
| 2026-04-27 17:18 | 38.24924 | -16.86478 | 36483 ft | 392 kts | 323° |
| 2026-04-27 17:18 | 38.29357 | -16.90523 | 36595 ft | 393 kts | 324° |
| 2026-04-27 17:19 | 38.33666 | -16.94398 | 36718 ft | 393 kts | 324° |
| 2026-04-27 17:19 | 38.38159 | -16.98382 | 36811 ft | 394 kts | 325° |
| 2026-04-27 17:20 | 38.42663 | -17.02316 | 36929 ft | 394 kts | 325° |
| 2026-04-27 17:20 | 38.47209 | -17.06228 | 37028 ft | 395 kts | 326° |
| 2026-04-27 17:21 | 38.51791 | -17.10114 | 37138 ft | 395 kts | 326° |
| 2026-04-27 17:21 | 38.56391 | -17.13957 | 37243 ft | 395 kts | 327° |
| 2026-04-27 17:22 | 38.60888 | -17.17661 | 37342 ft | 395 kts | 327° |
| 2026-04-27 17:22 | 38.65540 | -17.21435 | 37420 ft | 396 kts | 327° |
| 2026-04-27 17:23 | 38.70117 | -17.25094 | 37539 ft | 396 kts | 328° |
| 2026-04-27 17:23 | 38.74814 | -17.28790 | 37614 ft | 396 kts | 328° |
| 2026-04-27 17:24 | 38.79535 | -17.32448 | 37677 ft | 397 kts | 328° |
| 2026-04-27 17:24 | 38.84293 | -17.36079 | 37730 ft | 398 kts | 329° |
| 2026-04-27 17:25 | 38.89069 | -17.39669 | 37807 ft | 398 kts | 329° |
| 2026-04-27 17:25 | 38.93877 | -17.43226 | 37856 ft | 399 kts | 329° |
| 2026-04-27 17:26 | 38.98678 | -17.46723 | 37914 ft | 399 kts | 330° |
| 2026-04-27 17:26 | 39.03537 | -17.50205 | 37969 ft | 400 kts | 330° |
| 2026-04-27 17:27 | 39.08424 | -17.53651 | 38026 ft | 400 kts | 330° |
| 2026-04-27 17:27 | 39.13332 | -17.57057 | 38077 ft | 401 kts | 331° |
| 2026-04-27 17:28 | 39.18270 | -17.60426 | 38131 ft | 401 kts | 332° |
| 2026-04-27 17:29 | 39.25724 | -17.65407 | 38206 ft | 402 kts | 332° |
| 2026-04-27 17:29 | 39.30719 | -17.68673 | 38261 ft | 402 kts | 332° |
| 2026-04-27 17:30 | 39.35692 | -17.71870 | 38312 ft | 403 kts | 333° |
| 2026-04-27 17:30 | 39.43254 | -17.76626 | 38391 ft | 403 kts | 333° |